Bookmark and Share
Track history (hours):
 

Carnival Splendor

Last reported at 2014-Apr-19 10:32 UTC. Time now 2014-Apr-20 05:42 UTC.
Position N 37°05' W 072°54'.

Length 289 m; draft 8.3 m.

Type: Ship. MMSI: 372808000.

NotesDate/timePositionNaut miles runAvg speedWind from/ knotsBaromVisibWave heightAir tempDewpointWater temp
2014-Apr-19 10:32N 37°05' W 072°54'2317.9
2014-Apr-19 09:15N 37°28' W 072°57'311.6
2014-Apr-19 09:00N 37°30' W 072°54'1922.2 050 / 101022.0 14.0 9.025.0
2014-Apr-19 08:07N 37°49' W 072°60'1119.9
2014-Apr-19 07:33N 37°60' W 073°02'2420.1
2014-Apr-19 06:21N 38°24' W 073°05'1620.3
2014-Apr-19 05:33N 38°40' W 073°07'2020.3
2014-Apr-19 04:34N 39°00' W 073°11'2019.7
2014-Apr-19 03:33N 39°20' W 073°13'1919.5
2014-Apr-19 02:34N 39°39' W 073°16'2019.7
2014-Apr-19 01:33N 39°59' W 073°19'1817.8
2014-Apr-19 00:33N 40°12' W 073°34'1010.4
2014-Apr-18 23:33N 40°20' W 073°42'9 9.1
2014-Apr-18 22:33N 40°27' W 073°51'1111.0
2014-Apr-18 21:33N 40°34' W 074°02'1212.2
2014-Apr-18 20:33N 40°46' W 074°01'1 0.3
2014-Apr-18 18:31N 40°46' W 073°60'0 0.0
2014-Apr-18 17:30N 40°46' W 073°60'0 0.0
2014-Apr-18 16:30N 40°46' W 073°60'0 0.0
2014-Apr-18 15:17N 40°46' W 073°60'0 0.0
2014-Apr-18 14:05N 40°46' W 073°60'0 0.0
2014-Apr-18 13:29N 40°46' W 073°60'0 0.0
2014-Apr-18 12:07N 40°46' W 073°60'0 0.0
2014-Apr-18 11:25N 40°46' W 073°60'1 1.2
2014-Apr-18 10:33N 40°45' W 074°01'1010.3
2014-Apr-18 09:33N 40°35' W 074°02'1111.1
2014-Apr-18 08:33N 40°28' W 073°51'8 8.4
2014-Apr-18 07:33N 40°20' W 073°47'10 9.6
2014-Apr-18 06:33N 40°11' W 073°45'10 9.8
2014-Apr-18 05:30N 40°00' W 073°43'1415.2
2014-Apr-18 04:33N 39°46' W 073°39'1515.3
2014-Apr-18 03:33N 39°31' W 073°41'13714.6
2014-Apr-17 18:10N 37°14' W 073°55'1313.9
2014-Apr-17 17:12N 37°01' W 073°56'53116.5
2014-Apr-16 09:00N 28°18' W 075°48'10317.2 190 / 201010.0 22.019.024.0
2014-Apr-16 03:00N 26°42' W 076°30'100 5.5 160 / 151016.0 2.025.022.026.0
2014-Apr-15 09:00N 25°12' W 077°18'   120 / 181013.0 20.019.025.0
2014-Apr-13 03:00N 24°24' W 071°24'33818.8 080 / 291018.0 3.023.020.024.0
2014-Apr-12 09:00N 30°00' W 072°00'51719.5 020 / 201022.0 21.016.022.0
2014-Apr-11 06:30N 38°34' W 073°06'814.9
2014-Apr-11 06:00N 38°42' W 073°06'1325.2 200 / 241019.010.8 2.015.0 5.016.0
2014-Apr-11 05:29N 38°55' W 073°09'1819.5
2014-Apr-11 04:33N 39°13' W 073°12'1919.4
2014-Apr-11 03:34N 39°32' W 073°15'1919.4
2014-Apr-11 02:34N 39°51' W 073°17'1918.7
2014-Apr-11 01:33N 40°08' W 073°28'1313.2
2014-Apr-11 00:33N 40°18' W 073°39'9 9.2
2014-Apr-10 23:34N 40°25' W 073°46'9 9.1
2014-Apr-10 22:34N 40°30' W 073°56'1312.5
2014-Apr-10 21:34N 40°42' W 074°02'4 0.4
2014-Apr-10 10:05N 40°46' W 073°60'1 2.2
2014-Apr-10 09:30N 40°45' W 074°01'1212.9
2014-Apr-10 08:34N 40°33' W 074°01'1111.1
2014-Apr-10 07:33N 40°27' W 073°49'28 9.2
2014-Apr-10 04:33N 39°60' W 073°43'1010.0
2014-Apr-10 03:33N 39°50' W 073°42'10 9.5
2014-Apr-10 02:33N 39°40' W 073°43'9 9.2
2014-Apr-10 01:33N 39°31' W 073°46'10 9.5
2014-Apr-10 00:32N 39°22' W 073°49'10 9.5
2014-Apr-09 23:31N 39°12' W 073°51'  

Dump ship's entire track history

sailing weather and tide predictions

Carnival Splendor — 3EUS — position and weather